Time;durP1;ratioP1;P1;durP2;ratioP2;P2;SDS_P1;SDS_P2;PMS_P1;PMS_P2;Temp;Humidity;BMP_temperature;BMP_pressure;BME280_temperature;BME280_humidity;BME280_pressure;Samples;Min_cycle;Max_cycle;Signal;HPM_P1;HPM_P2
2022/05/05 00:00:06;;;;;;;9.07;8.37;;;14.20;88.10;;;;;;912373;154;27401;-74
2022/05/05 00:02:34;;;;;;;8.13;7.43;;;14.30;88.60;;;;;;911750;156;27907;-74
2022/05/05 00:04:59;;;;;;;9.37;8.50;;;14.30;88.70;;;;;;912103;154;27476;-74
2022/05/05 00:07:26;;;;;;;9.40;8.50;;;14.30;88.90;;;;;;911876;156;27415;-74
2022/05/05 00:09:53;;;;;;;9.40;8.57;;;14.40;89.20;;;;;;912052;154;28321;-74
2022/05/05 00:15:05;;;;;;;8.43;7.73;;;14.50;89.90;;;;;;912862;156;27549;-74
2022/05/05 00:17:33;;;;;;;8.97;8.07;;;14.50;89.80;;;;;;912484;154;27356;-74
2022/05/05 00:19:57;;;;;;;9.47;8.67;;;14.60;90.00;;;;;;912125;154;27432;-74
2022/05/05 00:22:24;;;;;;;8.83;8.13;;;14.60;90.10;;;;;;912578;156;27415;-74
2022/05/05 00:24:50;;;;;;;9.07;8.30;;;14.60;90.20;;;;;;912819;153;27469;-74
2022/05/05 00:27:17;;;;;;;8.97;8.17;;;14.70;90.30;;;;;;912660;154;27724;-74
2022/05/05 00:29:44;;;;;;;9.37;8.67;;;14.70;90.40;;;;;;912550;154;27483;-73
2022/05/05 00:32:11;;;;;;;9.13;8.33;;;14.70;90.50;;;;;;912210;156;27457;-74
2022/05/05 00:34:37;;;;;;;8.53;7.83;;;14.80;90.40;;;;;;912506;154;27906;-74
2022/05/05 00:37:03;;;;;;;7.87;7.27;;;14.80;90.20;;;;;;912449;154;27513;-74
2022/05/05 00:39:30;;;;;;;7.90;7.20;;;14.80;90.00;;;;;;912124;156;27381;-74
2022/05/05 00:41:57;;;;;;;7.87;7.17;;;14.90;90.00;;;;;;912202;154;27394;-74
2022/05/05 00:44:23;;;;;;;7.40;6.80;;;14.90;89.70;;;;;;912689;154;27360;-74
2022/05/05 00:46:50;;;;;;;8.23;7.60;;;14.90;89.60;;;;;;912792;154;27526;-74
2022/05/05 00:49:16;;;;;;;8.40;7.73;;;14.90;89.60;;;;;;912337;154;27514;-74
2022/05/05 00:51:43;;;;;;;9.37;8.37;;;14.80;89.70;;;;;;912217;154;27865;-74
2022/05/05 00:54:09;;;;;;;8.50;7.80;;;14.90;90.00;;;;;;912489;154;27340;-74
2022/05/05 00:56:36;;;;;;;8.33;7.63;;;14.80;90.00;;;;;;912144;154;27537;-74
2022/05/05 00:59:03;;;;;;;7.87;7.17;;;14.80;90.10;;;;;;911738;154;27356;-74
2022/05/05 01:01:29;;;;;;;7.37;6.77;;;14.80;90.10;;;;;;911773;154;27497;-74
2022/05/05 01:03:56;;;;;;;8.97;8.27;;;14.80;90.10;;;;;;911598;154;27544;-74
2022/05/05 01:06:22;;;;;;;8.80;8.00;;;14.80;90.20;;;;;;912461;156;27355;-74
2022/05/05 01:08:49;;;;;;;8.40;7.77;;;14.80;90.40;;;;;;912584;154;27500;-74
2022/05/05 01:11:16;;;;;;;9.70;8.80;;;14.70;90.40;;;;;;912782;156;27369;-74
2022/05/05 01:13:42;;;;;;;9.13;8.33;;;14.70;90.60;;;;;;912871;154;27498;-74
2022/05/05 01:16:09;;;;;;;8.90;8.10;;;14.70;90.60;;;;;;912443;154;27791;-74
2022/05/05 01:18:35;;;;;;;10.33;9.33;;;14.80;90.90;;;;;;912700;157;27466;-74
2022/05/05 01:21:02;;;;;;;9.70;8.90;;;14.80;90.70;;;;;;912521;154;27690;-74
2022/05/05 01:23:29;;;;;;;12.13;9.67;;;14.80;91.20;;;;;;911991;154;27356;-74
2022/05/05 01:28:40;;;;;;;10.57;9.57;;;14.80;91.30;;;;;;912614;156;27921;-74
2022/05/05 01:31:07;;;;;;;10.30;9.40;;;14.80;91.20;;;;;;912676;153;27355;-74
2022/05/05 01:33:33;;;;;;;9.80;9.00;;;14.80;91.30;;;;;;912441;154;27480;-74
2022/05/05 01:36:00;;;;;;;9.30;8.50;;;14.80;91.30;;;;;;912687;156;27333;-74
2022/05/05 01:38:26;;;;;;;9.07;8.30;;;14.80;91.30;;;;;;912544;153;27997;-74
2022/05/05 01:40:53;;;;;;;10.40;9.50;;;14.80;91.30;;;;;;911772;153;27403;-74
2022/05/05 01:43:19;;;;;;;9.20;8.37;;;14.80;91.30;;;;;;911828;156;27865;-74
2022/05/05 01:45:46;;;;;;;9.93;9.13;;;14.80;91.30;;;;;;912309;156;27364;-74
2022/05/05 01:48:13;;;;;;;9.47;8.73;;;14.80;91.30;;;;;;911306;154;28215;-74
2022/05/05 01:50:39;;;;;;;9.67;8.77;;;14.80;91.30;;;;;;912239;154;27421;-74
2022/05/05 01:53:06;;;;;;;10.23;9.33;;;14.80;91.30;;;;;;911978;154;27407;-74
2022/05/05 01:55:33;;;;;;;9.97;9.10;;;14.80;91.40;;;;;;912426;156;27534;-73
2022/05/05 01:57:59;;;;;;;9.70;8.90;;;14.70;91.50;;;;;;912221;154;27403;-74
2022/05/05 02:00:25;;;;;;;11.33;10.23;;;14.70;91.50;;;;;;912221;154;27445;-73
2022/05/05 02:02:52;;;;;;;10.30;9.40;;;14.70;91.50;;;;;;912496;156;27761;-74
2022/05/05 02:05:19;;;;;;;9.97;8.97;;;14.70;91.60;;;;;;912923;153;27428;-74
2022/05/05 02:07:45;;;;;;;10.27;9.33;;;14.70;91.60;;;;;;912886;156;27528;-74
2022/05/05 02:10:15;;;;;;;10.77;9.73;;;14.70;91.70;;;;;;912644;154;27380;-74
2022/05/05 02:12:41;;;;;;;10.13;9.10;;;14.70;91.80;;;;;;911530;154;27398;-74
2022/05/05 02:15:08;;;;;;;9.80;8.93;;;14.70;91.80;;;;;;912276;154;27379;-74
2022/05/05 02:17:35;;;;;;;10.03;9.23;;;14.70;91.90;;;;;;912282;154;27504;-74
2022/05/05 02:20:01;;;;;;;10.10;9.13;;;14.60;91.90;;;;;;912647;156;27410;-73
2022/05/05 02:22:28;;;;;;;10.37;9.43;;;14.60;91.90;;;;;;912516;154;27408;-74
2022/05/05 02:24:55;;;;;;;11.00;9.90;;;14.60;92.00;;;;;;912778;154;27320;-73
2022/05/05 02:27:21;;;;;;;10.23;9.33;;;14.60;92.00;;;;;;912378;154;27319;-73
2022/05/05 02:29:48;;;;;;;9.40;8.60;;;14.60;92.10;;;;;;912531;154;27393;-73
2022/05/05 02:32:14;;;;;;;9.93;9.10;;;14.60;92.20;;;;;;912001;154;27460;-74
2022/05/05 02:34:41;;;;;;;10.17;9.27;;;14.60;92.30;;;;;;911887;154;27523;-73
2022/05/05 02:39:52;;;;;;;11.07;10.07;;;14.60;92.40;;;;;;912844;156;27521;-74
2022/05/05 02:42:20;;;;;;;10.80;9.97;;;14.60;92.40;;;;;;911912;156;27384;-74
2022/05/05 02:44:45;;;;;;;10.83;9.73;;;14.60;92.50;;;;;;912127;154;27479;-74
2022/05/05 02:47:12;;;;;;;12.47;10.93;;;14.60;92.60;;;;;;912900;154;27403;-74
2022/05/05 02:49:39;;;;;;;10.87;9.97;;;14.60;92.60;;;;;;912886;156;27411;-74
2022/05/05 02:52:05;;;;;;;10.67;9.77;;;14.60;92.60;;;;;;912725;154;27369;-74
2022/05/05 02:57:20;;;;;;;10.30;9.37;;;14.60;92.80;;;;;;912862;153;27506;-74
2022/05/05 02:59:46;;;;;;;10.87;9.77;;;14.60;92.80;;;;;;912334;154;27483;-74
2022/05/05 03:02:12;;;;;;;10.63;9.73;;;14.60;92.80;;;;;;912695;154;27376;-74
2022/05/05 03:04:39;;;;;;;10.07;9.17;;;14.60;93.00;;;;;;912626;154;27439;-74
2022/05/05 03:07:05;;;;;;;9.23;8.43;;;14.60;93.20;;;;;;915301;156;27415;-74
2022/05/05 03:09:32;;;;;;;10.00;9.10;;;14.60;93.20;;;;;;918240;155;27412;-74
2022/05/05 03:11:59;;;;;;;10.23;9.27;;;14.60;93.20;;;;;;918492;153;27403;-74
2022/05/05 03:14:25;;;;;;;9.63;8.80;;;14.60;93.20;;;;;;918391;153;27399;-74
2022/05/05 03:16:52;;;;;;;9.90;9.03;;;14.60;93.10;;;;;;917851;153;27390;-74
2022/05/05 03:19:18;;;;;;;10.50;9.50;;;14.60;93.10;;;;;;917970;153;27484;-74
2022/05/05 03:21:45;;;;;;;11.73;10.63;;;14.60;93.00;;;;;;918453;156;27471;-74
2022/05/05 03:24:12;;;;;;;10.03;9.13;;;14.60;93.00;;;;;;918134;153;27348;-74
2022/05/05 03:26:38;;;;;;;12.37;9.23;;;14.60;93.00;;;;;;918614;153;27400;-74
2022/05/05 03:29:05;;;;;;;10.20;9.20;;;14.60;93.10;;;;;;918602;153;27379;-74
2022/05/05 03:31:32;;;;;;;10.30;9.27;;;14.60;93.00;;;;;;918417;153;27451;-74
2022/05/05 03:33:58;;;;;;;10.53;9.53;;;14.60;93.10;;;;;;918350;155;27775;-74
2022/05/05 03:36:24;;;;;;;10.80;9.80;;;14.60;93.20;;;;;;918007;153;27327;-74
2022/05/05 03:38:52;;;;;;;12.00;10.77;;;14.60;93.20;;;;;;918545;153;27743;-74
2022/05/05 03:41:19;;;;;;;12.30;11.00;;;14.60;93.20;;;;;;918134;153;27403;-74
2022/05/05 03:43:44;;;;;;;13.40;11.70;;;14.60;93.30;;;;;;917708;153;27484;-74
2022/05/05 03:46:11;;;;;;;13.73;12.27;;;14.60;93.30;;;;;;918407;155;27446;-74
2022/05/05 03:48:37;;;;;;;12.97;11.67;;;14.60;93.30;;;;;;918385;153;28087;-73
2022/05/05 03:51:04;;;;;;;12.80;11.57;;;14.60;93.30;;;;;;918290;156;27517;-74
2022/05/05 03:53:31;;;;;;;12.53;11.20;;;14.70;93.30;;;;;;917867;153;27491;-74
2022/05/05 03:55:57;;;;;;;13.33;11.40;;;14.70;93.40;;;;;;917969;156;27406;-74
2022/05/05 03:58:24;;;;;;;13.17;11.63;;;14.70;93.40;;;;;;919008;153;27351;-74
2022/05/05 04:00:50;;;;;;;13.23;11.83;;;14.70;93.50;;;;;;918181;153;27439;-74
2022/05/05 04:03:32;;;;;;;12.27;10.97;;;14.70;93.50;;;;;;918284;153;27426;-74
2022/05/05 04:06:01;;;;;;;15.77;12.40;;;14.70;93.60;;;;;;918332;153;27534;-73
2022/05/05 04:08:28;;;;;;;12.90;11.20;;;14.70;93.60;;;;;;916525;153;27509;-73
2022/05/05 04:10:55;;;;;;;14.03;12.27;;;14.70;93.60;;;;;;916971;153;27551;-74
2022/05/05 04:13:21;;;;;;;13.50;12.10;;;14.70;93.70;;;;;;916493;153;27457;-74
2022/05/05 04:15:48;;;;;;;14.20;11.47;;;14.70;93.70;;;;;;916613;153;27738;-73
2022/05/05 04:18:14;;;;;;;12.90;11.43;;;14.80;93.80;;;;;;916568;153;27418;-74
2022/05/05 04:20:42;;;;;;;12.65;11.35;;;14.80;93.90;;;;;;916140;153;27540;-73
2022/05/05 04:23:08;;;;;;;12.30;11.00;;;14.80;94.00;;;;;;916471;153;27464;-73
2022/05/05 04:25:34;;;;;;;13.00;11.70;;;14.80;93.90;;;;;;916904;153;27886;-73
2022/05/05 04:28:01;;;;;;;12.70;11.40;;;14.80;93.90;;;;;;916950;156;27373;-74
2022/05/05 04:30:27;;;;;;;12.90;11.60;;;14.90;94.00;;;;;;916784;153;28045;-74
2022/05/05 04:32:54;;;;;;;12.07;10.87;;;14.90;94.00;;;;;;916687;153;27409;-74
2022/05/05 04:35:21;;;;;;;11.17;10.07;;;14.90;94.00;;;;;;916060;156;27452;-74
2022/05/05 04:37:47;;;;;;;11.87;10.77;;;14.90;94.10;;;;;;916445;153;27305;-74
2022/05/05 04:40:14;;;;;;;12.50;11.30;;;15.00;94.20;;;;;;916655;154;27332;-74
2022/05/05 04:42:41;;;;;;;12.37;11.07;;;15.00;94.20;;;;;;916831;153;27412;-74
2022/05/05 04:45:07;;;;;;;11.57;10.33;;;15.00;94.30;;;;;;916728;153;27381;-74
2022/05/05 04:47:34;;;;;;;12.03;10.80;;;15.00;94.30;;;;;;916333;156;27512;-74
2022/05/05 04:50:00;;;;;;;12.03;10.83;;;15.10;94.40;;;;;;916379;153;27738;-74
2022/05/05 04:52:27;;;;;;;11.27;10.03;;;15.10;94.40;;;;;;916485;156;27333;-74
2022/05/05 04:54:53;;;;;;;10.87;9.80;;;15.10;94.40;;;;;;916265;153;27343;-74
2022/05/05 04:57:20;;;;;;;10.57;9.47;;;15.20;94.50;;;;;;916445;153;27488;-74
2022/05/05 04:59:47;;;;;;;11.20;10.03;;;15.20;94.50;;;;;;916057;156;27501;-74
2022/05/05 05:02:13;;;;;;;11.37;10.23;;;15.20;94.40;;;;;;915348;153;27327;-74
2022/05/05 05:04:40;;;;;;;10.83;9.73;;;15.20;94.40;;;;;;885944;158;27465;-74
2022/05/05 05:07:06;;;;;;;10.43;9.53;;;15.20;94.40;;;;;;916181;156;27548;-74
2022/05/05 05:09:34;;;;;;;10.43;9.47;;;15.30;94.40;;;;;;912091;154;27388;-74
2022/05/05 05:11:59;;;;;;;10.67;9.57;;;15.30;94.40;;;;;;912588;156;27488;-74
2022/05/05 05:14:26;;;;;;;11.20;10.13;;;15.40;94.40;;;;;;912442;154;27496;-74
2022/05/05 05:16:53;;;;;;;10.90;9.90;;;15.40;94.40;;;;;;912124;154;27362;-74
2022/05/05 05:19:19;;;;;;;10.43;9.50;;;15.40;94.50;;;;;;912401;154;27435;-74
2022/05/05 05:21:46;;;;;;;10.58;9.68;;;15.40;94.50;;;;;;912448;154;27387;-73
2022/05/05 05:24:13;;;;;;;11.47;10.27;;;15.40;94.60;;;;;;912090;154;27492;-74
2022/05/05 05:26:39;;;;;;;10.40;9.50;;;15.50;94.60;;;;;;912187;154;27495;-74
2022/05/05 05:29:06;;;;;;;10.30;9.33;;;15.50;94.50;;;;;;912346;154;27392;-74
2022/05/05 05:31:32;;;;;;;11.20;10.03;;;15.60;94.60;;;;;;911568;156;27396;-74
2022/05/05 05:33:59;;;;;;;11.07;9.97;;;15.60;94.60;;;;;;911798;154;27531;-74
2022/05/05 05:36:25;;;;;;;11.53;10.20;;;15.60;94.60;;;;;;912242;154;27740;-74
2022/05/05 05:38:52;;;;;;;12.33;11.10;;;15.70;94.60;;;;;;912696;154;27425;-74
2022/05/05 05:41:19;;;;;;;12.07;10.97;;;15.60;94.60;;;;;;912529;154;27374;-74
2022/05/05 05:43:45;;;;;;;11.57;10.57;;;15.70;94.60;;;;;;912558;154;27323;-74
2022/05/05 05:46:12;;;;;;;11.97;10.83;;;15.70;94.60;;;;;;912209;154;27360;-74
2022/05/05 05:48:38;;;;;;;11.53;10.43;;;15.70;94.80;;;;;;912437;154;27866;-74
2022/05/05 05:51:08;;;;;;;12.10;11.07;;;15.80;94.50;;;;;;912527;156;27476;-74
2022/05/05 05:53:34;;;;;;;11.08;10.13;;;15.80;94.60;;;;;;912153;154;28658;-74
2022/05/05 05:56:01;;;;;;;12.63;11.17;;;15.80;94.40;;;;;;911870;154;27450;-74
2022/05/05 05:58:28;;;;;;;11.12;10.08;;;15.80;94.30;;;;;;911659;154;27699;-74
2022/05/05 06:00:54;;;;;;;11.17;10.27;;;15.80;94.50;;;;;;912871;154;27434;-74
2022/05/05 06:06:06;;;;;;;10.50;9.57;;;15.90;94.40;;;;;;912219;156;27419;-74
2022/05/05 06:08:32;;;;;;;10.65;9.63;;;15.90;94.40;;;;;;913485;154;27491;-74
2022/05/05 06:10:59;;;;;;;11.33;10.32;;;15.90;94.50;;;;;;916862;153;27393;-74
2022/05/05 06:13:25;;;;;;;12.87;11.67;;;15.90;94.60;;;;;;916842;153;27449;-74
2022/05/05 06:15:52;;;;;;;12.77;11.57;;;15.90;94.60;;;;;;916612;156;27477;-73
2022/05/05 06:18:19;;;;;;;11.73;10.73;;;16.00;94.80;;;;;;916558;154;27555;-74
2022/05/05 06:20:45;;;;;;;12.50;11.40;;;16.00;94.90;;;;;;916935;154;27392;-74
2022/05/05 06:23:12;;;;;;;12.77;11.50;;;16.10;95.00;;;;;;916156;153;27748;-73
2022/05/05 06:25:40;;;;;;;11.73;10.63;;;16.10;94.90;;;;;;916236;153;27480;-73
2022/05/05 06:28:05;;;;;;;12.25;11.08;;;16.20;94.80;;;;;;916593;153;27364;-73
2022/05/05 06:30:32;;;;;;;11.57;10.48;;;16.20;94.50;;;;;;916682;156;27410;-73
2022/05/05 06:32:58;;;;;;;11.30;10.18;;;16.30;94.40;;;;;;916233;153;27555;-73
2022/05/05 06:35:25;;;;;;;12.60;11.30;;;16.30;94.30;;;;;;916763;155;27376;-73
2022/05/05 06:37:52;;;;;;;10.82;9.83;;;16.40;94.20;;;;;;916436;153;27457;-73
2022/05/05 06:40:18;;;;;;;11.60;10.43;;;16.40;94.10;;;;;;915595;153;27465;-73
2022/05/05 06:42:45;;;;;;;11.03;9.70;;;16.40;93.90;;;;;;916488;153;27356;-73
2022/05/05 06:45:11;;;;;;;10.90;9.90;;;16.40;93.80;;;;;;916763;156;27417;-73
2022/05/05 06:47:38;;;;;;;11.13;10.13;;;16.50;93.70;;;;;;917087;153;27828;-73
2022/05/05 06:50:04;;;;;;;10.38;9.40;;;16.50;93.70;;;;;;916403;153;27380;-73
2022/05/05 06:52:31;;;;;;;10.63;9.73;;;16.50;93.80;;;;;;916945;153;27367;-73
2022/05/05 06:54:58;;;;;;;10.25;9.35;;;16.50;94.00;;;;;;917313;153;27349;-73
2022/05/05 06:57:24;;;;;;;12.23;9.58;;;16.60;94.20;;;;;;916548;153;27417;-73
2022/05/05 06:59:51;;;;;;;10.58;9.68;;;16.60;94.20;;;;;;916898;156;27500;-73
2022/05/05 07:02:17;;;;;;;10.30;9.48;;;16.70;94.00;;;;;;916717;153;27335;-73
2022/05/05 07:05:29;;;;;;;11.57;10.48;;;16.70;93.50;;;;;;916409;156;27530;-73
2022/05/05 07:07:14;;;;;;;12.53;10.57;;;16.80;93.10;;;;;;902355;153;27357;-73
2022/05/05 07:12:22;;;;;;;11.45;10.25;;;16.90;93.10;;;;;;916820;153;27403;-73
2022/05/05 07:14:48;;;;;;;10.70;9.70;;;16.90;92.80;;;;;;916917;154;27419;-73
2022/05/05 07:17:15;;;;;;;10.45;9.45;;;16.90;92.70;;;;;;916791;153;27335;-73
2022/05/05 07:19:42;;;;;;;10.45;8.98;;;17.00;92.60;;;;;;916712;156;27352;-73
2022/05/05 07:22:08;;;;;;;10.40;9.50;;;17.00;92.40;;;;;;916973;153;27448;-73
2022/05/05 07:24:35;;;;;;;9.85;8.85;;;17.00;92.30;;;;;;916534;153;27481;-73
2022/05/05 07:27:01;;;;;;;9.45;8.53;;;17.00;92.20;;;;;;916844;153;27521;-73
2022/05/05 07:29:28;;;;;;;13.30;11.30;;;17.10;92.10;;;;;;915724;153;27459;-73
2022/05/05 07:31:55;;;;;;;10.10;8.75;;;17.10;92.00;;;;;;916361;153;27375;-73
2022/05/05 07:34:21;;;;;;;9.88;8.88;;;17.10;91.90;;;;;;916449;153;27391;-73
2022/05/05 07:36:48;;;;;;;9.50;8.65;;;17.10;91.80;;;;;;916657;153;27469;-73
2022/05/05 07:39:14;;;;;;;9.58;8.68;;;17.20;91.90;;;;;;916446;153;27399;-73
2022/05/05 07:41:41;;;;;;;10.17;9.20;;;17.20;91.70;;;;;;916682;153;27394;-73
2022/05/05 07:44:08;;;;;;;10.43;9.43;;;17.20;91.50;;;;;;916407;156;27404;-72
2022/05/05 07:46:34;;;;;;;10.15;9.20;;;17.30;91.50;;;;;;916455;153;27457;-73
2022/05/05 07:49:01;;;;;;;9.38;8.50;;;17.30;91.40;;;;;;916800;153;27404;-73
2022/05/05 07:51:28;;;;;;;8.63;7.92;;;17.40;91.40;;;;;;916697;156;27899;-73
2022/05/05 07:56:39;;;;;;;9.58;8.63;;;17.50;91.20;;;;;;916477;153;27501;-73
2022/05/05 07:59:05;;;;;;;9.80;8.90;;;17.60;90.80;;;;;;916878;153;27472;-73
2022/05/05 08:01:32;;;;;;;9.83;8.93;;;17.60;90.60;;;;;;916666;153;27528;-73
2022/05/05 08:03:58;;;;;;;8.78;7.60;;;17.70;90.70;;;;;;917486;153;27531;-73
2022/05/05 08:06:25;;;;;;;9.35;8.45;;;17.80;90.70;;;;;;916305;153;27416;-72
2022/05/05 08:08:51;;;;;;;8.65;7.75;;;17.90;90.60;;;;;;916058;153;27820;-73
2022/05/05 08:11:18;;;;;;;8.80;7.60;;;18.00;90.50;;;;;;912694;156;27379;-73
2022/05/05 08:13:45;;;;;;;10.00;8.35;;;18.10;90.60;;;;;;912106;154;27368;-73
2022/05/05 08:16:11;;;;;;;8.73;7.53;;;18.30;90.60;;;;;;912800;154;27475;-73
2022/05/05 08:18:38;;;;;;;8.55;7.75;;;18.50;90.90;;;;;;912076;154;27554;-73
2022/05/05 08:21:05;;;;;;;8.98;8.15;;;18.70;90.80;;;;;;912842;153;27470;-73
2022/05/05 08:23:31;;;;;;;8.63;7.65;;;18.90;90.40;;;;;;912012;154;27363;-73
2022/05/05 08:28:42;;;;;;;7.62;6.85;;;19.40;89.00;;;;;;913054;154;27379;-73
2022/05/05 08:31:12;;;;;;;8.08;7.30;;;19.60;87.70;;;;;;912804;154;27433;-74
2022/05/05 08:33:36;;;;;;;7.72;6.92;;;19.80;86.40;;;;;;911626;154;27400;-74
2022/05/05 08:36:02;;;;;;;7.92;6.65;;;20.00;85.70;;;;;;912564;154;27360;-74
2022/05/05 08:38:29;;;;;;;7.20;6.47;;;20.20;85.00;;;;;;912912;154;28252;-74
2022/05/05 08:40:55;;;;;;;8.28;6.97;;;20.40;84.00;;;;;;912660;154;27333;-74
2022/05/05 08:43:23;;;;;;;8.00;6.55;;;20.60;83.00;;;;;;912346;154;27374;-74
2022/05/05 08:45:50;;;;;;;6.78;6.28;;;20.80;82.10;;;;;;911746;154;27452;-74
2022/05/05 08:48:16;;;;;;;7.35;6.70;;;21.00;81.30;;;;;;912490;154;27474;-74
2022/05/05 08:50:46;;;;;;;7.40;6.50;;;21.20;80.40;;;;;;912908;154;27465;-74
2022/05/05 08:53:12;;;;;;;8.28;7.47;;;21.30;79.30;;;;;;912677;153;27430;-74
2022/05/05 08:55:39;;;;;;;7.00;6.40;;;21.40;78.00;;;;;;912056;154;27345;-74
2022/05/05 08:58:05;;;;;;;8.40;6.70;;;21.50;76.80;;;;;;912690;154;27352;-74
2022/05/05 09:00:32;;;;;;;7.42;6.80;;;21.60;76.10;;;;;;912621;156;27348;-74
2022/05/05 09:03:04;;;;;;;7.25;6.65;;;21.60;75.10;;;;;;912368;154;27445;-74
2022/05/05 09:05:43;;;;;;;6.83;6.22;;;21.70;74.90;;;;;;912341;154;27622;-74
2022/05/05 09:08:31;;;;;;;7.33;6.62;;;21.80;75.00;;;;;;912618;154;27441;-73
2022/05/05 09:10:58;;;;;;;20.08;9.03;;;21.90;74.80;;;;;;912713;153;27424;-74
2022/05/05 09:13:27;;;;;;;9.00;7.25;;;21.90;74.00;;;;;;911870;154;27360;-74
2022/05/05 09:15:53;;;;;;;8.68;5.92;;;22.00;74.00;;;;;;912097;154;27388;-74
2022/05/05 09:18:26;;;;;;;7.25;6.65;;;22.20;74.10;;;;;;912695;154;27481;-74
2022/05/05 09:20:53;;;;;;;7.22;6.53;;;22.40;74.10;;;;;;912640;156;27462;-74
2022/05/05 09:23:37;;;;;;;6.58;6.08;;;22.60;73.90;;;;;;912934;156;27455;-74
2022/05/05 09:26:04;;;;;;;6.00;5.50;;;22.80;73.60;;;;;;913070;156;27469;-74
2022/05/05 09:28:35;;;;;;;6.78;6.17;;;23.20;73.20;;;;;;912571;153;27465;-74
2022/05/05 09:31:08;;;;;;;5.85;5.35;;;23.50;72.50;;;;;;912734;155;27370;-74
2022/05/05 09:33:37;;;;;;;6.78;5.85;;;23.80;72.20;;;;;;912566;156;27341;-74
2022/05/05 09:36:04;;;;;;;6.35;5.83;;;24.10;71.10;;;;;;911841;157;27454;-74
2022/05/05 09:38:52;;;;;;;5.67;5.17;;;24.40;70.10;;;;;;912402;156;27803;-74
2022/05/05 09:41:22;;;;;;;5.75;5.22;;;24.70;68.70;;;;;;912515;156;27518;-74
2022/05/05 09:43:48;;;;;;;5.72;5.22;;;24.90;67.60;;;;;;912316;156;27897;-74
2022/05/05 09:46:24;;;;;;;7.20;6.15;;;25.10;66.70;;;;;;912203;154;27338;-74
2022/05/05 09:48:50;;;;;;;8.15;6.55;;;25.20;65.80;;;;;;912278;156;27379;-74
2022/05/05 09:51:16;;;;;;;6.28;5.67;;;25.40;65.60;;;;;;912344;156;27481;-74
2022/05/05 09:59:14;;;;;;;6.08;5.47;;;25.50;62.80;;;;;;912499;156;27397;-74
2022/05/05 10:01:41;;;;;;;6.67;5.53;;;25.60;62.30;;;;;;912444;157;27543;-74
2022/05/05 10:04:05;;;;;;;7.33;5.95;;;25.60;61.90;;;;;;912633;156;27533;-75
2022/05/05 10:06:38;;;;;;;6.05;5.40;;;25.60;62.00;;;;;;912620;156;27401;-74
2022/05/05 10:09:04;;;;;;;6.12;5.30;;;25.70;61.60;;;;;;912778;156;27365;-74
2022/05/05 10:11:31;;;;;;;5.97;5.47;;;25.80;61.60;;;;;;912012;156;27448;-75
2022/05/05 10:13:57;;;;;;;5.90;5.40;;;25.80;61.30;;;;;;912730;156;27341;-74
2022/05/05 10:16:24;;;;;;;6.00;5.10;;;25.90;60.90;;;;;;912461;156;27780;-74
2022/05/05 10:18:51;;;;;;;5.37;4.97;;;26.10;61.10;;;;;;912471;156;27401;-75
2022/05/05 10:21:38;;;;;;;6.28;5.30;;;26.20;61.10;;;;;;912523;156;27320;-75
2022/05/05 10:24:26;;;;;;;5.70;5.20;;;26.40;60.20;;;;;;912778;156;27374;-74
2022/05/05 10:26:52;;;;;;;7.50;5.28;;;26.60;60.10;;;;;;912598;156;27814;-75
2022/05/05 10:29:31;;;;;;;6.37;5.55;;;26.60;59.30;;;;;;912377;154;27498;-74
2022/05/05 10:32:16;;;;;;;6.87;6.22;;;26.70;58.70;;;;;;912542;156;28113;-74
2022/05/05 10:34:45;;;;;;;6.20;5.62;;;26.70;58.20;;;;;;911360;156;27514;-74
2022/05/05 10:37:09;;;;;;;6.10;5.50;;;26.60;57.60;;;;;;912391;153;27332;-75
2022/05/05 10:39:51;;;;;;;5.83;5.40;;;26.50;57.20;;;;;;912406;156;27389;-74
2022/05/05 10:42:57;;;;;;;6.17;5.17;;;26.40;56.90;;;;;;911142;154;28158;-74
2022/05/05 10:45:12;;;;;;;6.08;5.42;;;26.30;56.90;;;;;;905719;157;28042;-74
2022/05/05 10:47:57;;;;;;;4.97;4.50;;;26.20;57.00;;;;;;912938;154;27506;-74
2022/05/05 10:50:39;;;;;;;5.85;5.33;;;26.00;56.90;;;;;;910958;156;27352;-74
2022/05/05 10:53:04;;;;;;;7.90;4.67;;;25.90;57.00;;;;;;911678;156;27367;-74
2022/05/05 10:55:33;;;;;;;8.08;4.67;;;25.80;57.30;;;;;;912042;154;27390;-74
2022/05/05 10:58:00;;;;;;;6.08;4.78;;;25.80;57.40;;;;;;912347;154;27395;-74
2022/05/05 11:00:41;;;;;;;5.47;4.97;;;25.80;57.90;;;;;;913049;154;27417;-74
2022/05/05 11:03:09;;;;;;;6.30;4.55;;;25.80;56.90;;;;;;910499;154;27427;-74
2022/05/05 11:05:38;;;;;;;5.25;4.78;;;25.90;57.10;;;;;;911096;156;27354;-74
2022/05/05 11:08:10;;;;;;;5.37;4.97;;;25.90;56.90;;;;;;911894;154;27446;-74
2022/05/05 11:11:39;;;;;;;5.60;4.85;;;25.90;56.00;;;;;;911969;154;27493;-74
2022/05/05 11:13:40;;;;;;;6.55;5.62;;;25.90;55.70;;;;;;913883;154;27544;-74
2022/05/05 11:22:16;;;;;;;5.97;5.22;;;25.70;55.40;;;;;;916672;153;27435;-75
2022/05/05 11:24:45;;;;;;;5.55;5.00;;;25.60;55.40;;;;;;916119;153;27381;-75
2022/05/05 11:27:12;;;;;;;5.22;4.80;;;25.50;55.60;;;;;;916100;153;27448;-75
2022/05/05 11:29:39;;;;;;;4.65;4.25;;;25.50;55.10;;;;;;915883;153;27462;-75
2022/05/05 11:32:08;;;;;;;5.17;4.28;;;25.40;55.10;;;;;;915986;153;27390;-75
2022/05/05 11:34:37;;;;;;;5.95;5.28;;;25.40;55.30;;;;;;916258;153;27440;-74
2022/05/05 11:37:04;;;;;;;6.47;4.67;;;25.40;54.80;;;;;;916188;153;27431;-75
2022/05/05 11:39:33;;;;;;;6.22;5.25;;;25.30;54.30;;;;;;915793;153;27468;-74
2022/05/05 11:42:02;;;;;;;6.53;5.45;;;25.20;54.20;;;;;;916232;153;27638;-74
2022/05/05 11:44:29;;;;;;;4.67;4.28;;;25.10;53.60;;;;;;915639;153;27602;-74
2022/05/05 11:46:57;;;;;;;5.92;4.40;;;24.90;54.00;;;;;;916094;153;27350;-74
2022/05/05 11:49:24;;;;;;;5.60;5.10;;;24.80;53.90;;;;;;916097;153;27967;-75
2022/05/05 11:51:49;;;;;;;5.22;4.72;;;24.70;54.20;;;;;;916162;153;27468;-75
2022/05/05 11:54:15;;;;;;;6.47;4.67;;;24.50;54.10;;;;;;916574;153;27557;-75
2022/05/05 11:56:45;;;;;;;5.03;4.53;;;24.30;54.50;;;;;;916741;153;27482;-74
2022/05/05 12:02:00;;;;;;;7.53;4.60;;;24.10;55.10;;;;;;916279;153;27504;-74
2022/05/05 12:04:26;;;;;;;7.08;4.53;;;24.10;55.20;;;;;;915613;153;27409;-74
2022/05/05 12:06:52;;;;;;;5.45;4.55;;;24.00;55.30;;;;;;916826;156;27358;-75
2022/05/05 12:09:19;;;;;;;5.20;4.70;;;24.00;55.50;;;;;;916195;153;27726;-75
2022/05/05 12:11:46;;;;;;;4.83;4.42;;;24.00;55.50;;;;;;916429;153;27528;-75
2022/05/05 12:14:13;;;;;;;5.75;4.45;;;24.00;55.60;;;;;;915580;153;27414;-75
2022/05/05 12:16:39;;;;;;;6.22;5.08;;;24.00;55.60;;;;;;916431;153;27347;-75
2022/05/05 12:19:15;;;;;;;7.95;5.60;;;24.00;55.40;;;;;;916746;153;27336;-74
2022/05/05 12:21:53;;;;;;;4.85;4.20;;;24.00;55.30;;;;;;916070;153;27336;-75
2022/05/05 12:24:17;;;;;;;5.37;4.53;;;24.00;55.40;;;;;;915329;153;27851;-74
2022/05/05 12:26:43;;;;;;;5.42;4.28;;;24.00;55.30;;;;;;916016;153;27394;-74
2022/05/05 12:29:17;;;;;;;5.35;4.37;;;24.00;55.10;;;;;;915973;153;27700;-75
2022/05/05 12:31:52;;;;;;;6.37;4.12;;;24.00;55.00;;;;;;916401;153;27372;-74
2022/05/05 12:34:22;;;;;;;4.80;3.67;;;23.90;54.80;;;;;;915884;153;27377;-74
2022/05/05 12:36:47;;;;;;;21.77;6.80;;;23.80;54.60;;;;;;915189;153;27553;-74
2022/05/05 12:39:14;;;;;;;5.00;3.90;;;23.70;55.20;;;;;;916286;153;28395;-75
2022/05/05 12:41:56;;;;;;;5.83;3.80;;;23.60;54.60;;;;;;916559;153;27435;-74
2022/05/05 12:44:22;;;;;;;6.28;3.85;;;23.60;54.60;;;;;;916457;153;27479;-74
2022/05/05 12:46:49;;;;;;;5.15;4.00;;;23.40;54.30;;;;;;916886;156;27362;-74
2022/05/05 12:49:15;;;;;;;4.37;3.52;;;23.30;54.40;;;;;;916399;156;27503;-75
2022/05/05 12:51:42;;;;;;;4.50;3.35;;;23.30;54.30;;;;;;913068;154;27417;-74
2022/05/05 12:59:40;;;;;;;4.75;4.08;;;23.00;54.20;;;;;;916673;156;27449;-74
2022/05/05 13:02:05;;;;;;;4.80;3.80;;;22.90;54.50;;;;;;916356;153;27425;-74
2022/05/05 13:04:31;;;;;;;4.72;4.30;;;22.80;54.50;;;;;;916126;156;27417;-74
2022/05/05 13:06:58;;;;;;;4.40;3.95;;;22.70;54.70;;;;;;916248;156;27414;-74
2022/05/05 13:09:25;;;;;;;4.95;4.03;;;22.70;55.00;;;;;;916301;154;27400;-74
2022/05/05 13:11:54;;;;;;;4.30;3.90;;;22.60;55.00;;;;;;916640;156;27368;-74
2022/05/05 13:14:23;;;;;;;6.87;3.67;;;22.60;55.10;;;;;;913940;154;27394;-74
2022/05/05 13:16:50;;;;;;;4.83;3.45;;;22.60;55.10;;;;;;913703;156;27517;-75
2022/05/05 13:19:17;;;;;;;4.35;3.95;;;22.50;55.00;;;;;;913195;156;27485;-74
2022/05/05 13:21:44;;;;;;;5.45;3.85;;;22.50;54.90;;;;;;913678;157;27359;-74
2022/05/05 13:24:10;;;;;;;7.10;4.37;;;22.40;55.40;;;;;;913577;156;27310;-74